sensor_id;sensor_type;location;lat;lon;timestamp;P1;durP1;ratioP1;P2;durP2;ratioP2
52978;SDS011;51106;53.186;6.598;2022-07-29T00:00:19;5.13;;;2.50;;
52978;SDS011;51106;53.186;6.598;2022-07-29T00:02:21;3.20;;;2.58;;
52978;SDS011;51106;53.186;6.598;2022-07-29T00:04:26;4.97;;;2.67;;
52978;SDS011;51106;53.186;6.598;2022-07-29T00:06:28;6.43;;;2.80;;
52978;SDS011;51106;53.186;6.598;2022-07-29T00:08:30;4.85;;;2.40;;
52978;SDS011;51106;53.186;6.598;2022-07-29T00:10:32;4.35;;;2.67;;
52978;SDS011;51106;53.186;6.598;2022-07-29T00:12:34;5.28;;;2.83;;
52978;SDS011;51106;53.186;6.598;2022-07-29T00:14:38;4.03;;;2.33;;
52978;SDS011;51106;53.186;6.598;2022-07-29T00:16:40;5.78;;;2.42;;
52978;SDS011;51106;53.186;6.598;2022-07-29T00:18:45;3.33;;;2.53;;
52978;SDS011;51106;53.186;6.598;2022-07-29T00:20:50;6.15;;;3.45;;
52978;SDS011;51106;53.186;6.598;2022-07-29T00:22:52;5.50;;;3.50;;
52978;SDS011;51106;53.186;6.598;2022-07-29T00:24:54;5.95;;;2.80;;
52978;SDS011;51106;53.186;6.598;2022-07-29T00:26:57;3.78;;;2.50;;
52978;SDS011;51106;53.186;6.598;2022-07-29T00:28:59;5.40;;;2.60;;
52978;SDS011;51106;53.186;6.598;2022-07-29T00:31:23;5.25;;;2.53;;
52978;SDS011;51106;53.186;6.598;2022-07-29T00:33:25;5.90;;;3.70;;
52978;SDS011;51106;53.186;6.598;2022-07-29T00:35:27;10.20;;;3.65;;
52978;SDS011;51106;53.186;6.598;2022-07-29T00:37:47;5.18;;;3.10;;
52978;SDS011;51106;53.186;6.598;2022-07-29T00:39:49;7.45;;;3.28;;
52978;SDS011;51106;53.186;6.598;2022-07-29T00:41:51;3.72;;;2.53;;
52978;SDS011;51106;53.186;6.598;2022-07-29T00:43:54;6.05;;;2.72;;
52978;SDS011;51106;53.186;6.598;2022-07-29T00:45:58;4.93;;;2.67;;
52978;SDS011;51106;53.186;6.598;2022-07-29T00:48:01;5.28;;;2.20;;
52978;SDS011;51106;53.186;6.598;2022-07-29T00:50:05;4.20;;;2.90;;
52978;SDS011;51106;53.186;6.598;2022-07-29T00:52:09;6.40;;;2.70;;
52978;SDS011;51106;53.186;6.598;2022-07-29T00:54:12;5.15;;;3.00;;
52978;SDS011;51106;53.186;6.598;2022-07-29T00:56:14;7.20;;;4.18;;
52978;SDS011;51106;53.186;6.598;2022-07-29T00:58:16;7.25;;;4.28;;
52978;SDS011;51106;53.186;6.598;2022-07-29T01:00:24;5.07;;;3.15;;
52978;SDS011;51106;53.186;6.598;2022-07-29T01:02:28;7.78;;;5.10;;
52978;SDS011;51106;53.186;6.598;2022-07-29T01:04:30;5.47;;;3.63;;
52978;SDS011;51106;53.186;6.598;2022-07-29T01:06:33;5.60;;;3.97;;
52978;SDS011;51106;53.186;6.598;2022-07-29T01:08:35;6.72;;;3.58;;
52978;SDS011;51106;53.186;6.598;2022-07-29T01:10:38;6.00;;;3.50;;
52978;SDS011;51106;53.186;6.598;2022-07-29T01:12:42;6.65;;;4.15;;
52978;SDS011;51106;53.186;6.598;2022-07-29T01:14:47;6.18;;;4.15;;
52978;SDS011;51106;53.186;6.598;2022-07-29T01:16:54;6.55;;;4.05;;
52978;SDS011;51106;53.186;6.598;2022-07-29T01:19:07;8.70;;;4.40;;
52978;SDS011;51106;53.186;6.598;2022-07-29T01:21:44;8.52;;;3.90;;
52978;SDS011;51106;53.186;6.598;2022-07-29T01:30:48;4.82;;;2.88;;
52978;SDS011;51106;53.186;6.598;2022-07-29T01:32:55;4.43;;;3.20;;
52978;SDS011;51106;53.186;6.598;2022-07-29T01:35:15;6.32;;;2.90;;
52978;SDS011;51106;53.186;6.598;2022-07-29T01:37:24;5.60;;;3.50;;
52978;SDS011;51106;53.186;6.598;2022-07-29T01:39:32;4.43;;;3.13;;
52978;SDS011;51106;53.186;6.598;2022-07-29T01:41:38;4.53;;;2.65;;
52978;SDS011;51106;53.186;6.598;2022-07-29T01:43:51;7.20;;;2.97;;
52978;SDS011;51106;53.186;6.598;2022-07-29T01:45:58;6.07;;;2.78;;
52978;SDS011;51106;53.186;6.598;2022-07-29T01:48:08;5.00;;;2.40;;
52978;SDS011;51106;53.186;6.598;2022-07-29T01:50:17;4.50;;;2.38;;
52978;SDS011;51106;53.186;6.598;2022-07-29T01:52:23;4.90;;;2.20;;
52978;SDS011;51106;53.186;6.598;2022-07-29T01:54:39;3.88;;;2.70;;
52978;SDS011;51106;53.186;6.598;2022-07-29T01:56:48;3.72;;;2.58;;
52978;SDS011;51106;53.186;6.598;2022-07-29T01:58:54;5.43;;;2.75;;
52978;SDS011;51106;53.186;6.598;2022-07-29T02:00:58;3.58;;;2.40;;
52978;SDS011;51106;53.186;6.598;2022-07-29T02:03:02;5.22;;;2.75;;
52978;SDS011;51106;53.186;6.598;2022-07-29T02:05:14;6.00;;;2.60;;
52978;SDS011;51106;53.186;6.598;2022-07-29T02:07:19;5.60;;;2.58;;
52978;SDS011;51106;53.186;6.598;2022-07-29T02:09:26;3.72;;;2.42;;
52978;SDS011;51106;53.186;6.598;2022-07-29T02:11:31;3.47;;;2.40;;
52978;SDS011;51106;53.186;6.598;2022-07-29T02:13:36;5.63;;;2.63;;
52978;SDS011;51106;53.186;6.598;2022-07-29T02:15:38;5.72;;;2.70;;
52978;SDS011;51106;53.186;6.598;2022-07-29T02:19:53;4.78;;;2.72;;
52978;SDS011;51106;53.186;6.598;2022-07-29T02:21:58;3.35;;;2.40;;
52978;SDS011;51106;53.186;6.598;2022-07-29T02:24:02;3.63;;;2.33;;
52978;SDS011;51106;53.186;6.598;2022-07-29T02:26:05;3.63;;;2.30;;
52978;SDS011;51106;53.186;6.598;2022-07-29T02:28:10;4.38;;;2.25;;
52978;SDS011;51106;53.186;6.598;2022-07-29T02:30:12;4.65;;;2.55;;
52978;SDS011;51106;53.186;6.598;2022-07-29T02:32:16;2.97;;;2.40;;
52978;SDS011;51106;53.186;6.598;2022-07-29T02:34:23;2.75;;;2.00;;
52978;SDS011;51106;53.186;6.598;2022-07-29T02:36:26;5.45;;;2.30;;
52978;SDS011;51106;53.186;6.598;2022-07-29T02:38:31;4.55;;;2.80;;
52978;SDS011;51106;53.186;6.598;2022-07-29T02:40:52;7.05;;;2.65;;
52978;SDS011;51106;53.186;6.598;2022-07-29T02:42:56;5.45;;;2.20;;
52978;SDS011;51106;53.186;6.598;2022-07-29T02:44:58;5.68;;;2.42;;
52978;SDS011;51106;53.186;6.598;2022-07-29T02:47:07;5.70;;;2.38;;
52978;SDS011;51106;53.186;6.598;2022-07-29T02:52:03;5.22;;;2.50;;
52978;SDS011;51106;53.186;6.598;2022-07-29T02:54:06;3.78;;;2.65;;
52978;SDS011;51106;53.186;6.598;2022-07-29T02:56:11;6.47;;;2.72;;
52978;SDS011;51106;53.186;6.598;2022-07-29T02:58:27;4.85;;;2.47;;
52978;SDS011;51106;53.186;6.598;2022-07-29T03:00:31;4.72;;;2.60;;
52978;SDS011;51106;53.186;6.598;2022-07-29T03:02:38;5.53;;;2.40;;
52978;SDS011;51106;53.186;6.598;2022-07-29T03:04:42;3.15;;;2.38;;
52978;SDS011;51106;53.186;6.598;2022-07-29T03:06:46;5.28;;;2.20;;
52978;SDS011;51106;53.186;6.598;2022-07-29T03:08:49;5.47;;;2.20;;
52978;SDS011;51106;53.186;6.598;2022-07-29T03:10:59;4.90;;;2.58;;
52978;SDS011;51106;53.186;6.598;2022-07-29T03:13:03;5.00;;;2.10;;
52978;SDS011;51106;53.186;6.598;2022-07-29T03:15:06;5.93;;;2.50;;
52978;SDS011;51106;53.186;6.598;2022-07-29T03:17:09;5.90;;;2.42;;
52978;SDS011;51106;53.186;6.598;2022-07-29T03:19:16;5.50;;;2.50;;
52978;SDS011;51106;53.186;6.598;2022-07-29T03:21:18;4.90;;;2.30;;
52978;SDS011;51106;53.186;6.598;2022-07-29T03:23:21;3.95;;;2.50;;
52978;SDS011;51106;53.186;6.598;2022-07-29T03:25:25;5.75;;;2.20;;
52978;SDS011;51106;53.186;6.598;2022-07-29T03:27:28;8.40;;;3.63;;
52978;SDS011;51106;53.186;6.598;2022-07-29T03:29:30;5.13;;;2.40;;
52978;SDS011;51106;53.186;6.598;2022-07-29T03:31:35;3.78;;;2.80;;
52978;SDS011;51106;53.186;6.598;2022-07-29T03:33:37;3.50;;;2.40;;
52978;SDS011;51106;53.186;6.598;2022-07-29T03:35:40;4.15;;;2.53;;
52978;SDS011;51106;53.186;6.598;2022-07-29T03:37:44;8.05;;;2.80;;
52978;SDS011;51106;53.186;6.598;2022-07-29T03:39:46;4.93;;;2.90;;
52978;SDS011;51106;53.186;6.598;2022-07-29T03:41:49;6.32;;;3.13;;
52978;SDS011;51106;53.186;6.598;2022-07-29T03:43:55;4.32;;;2.30;;
52978;SDS011;51106;53.186;6.598;2022-07-29T03:45:59;6.70;;;3.53;;
52978;SDS011;51106;53.186;6.598;2022-07-29T03:48:10;3.22;;;2.40;;
52978;SDS011;51106;53.186;6.598;2022-07-29T03:50:16;5.15;;;2.78;;
52978;SDS011;51106;53.186;6.598;2022-07-29T03:52:20;6.20;;;2.75;;
52978;SDS011;51106;53.186;6.598;2022-07-29T03:54:23;5.57;;;2.58;;
52978;SDS011;51106;53.186;6.598;2022-07-29T03:56:25;7.63;;;2.83;;
52978;SDS011;51106;53.186;6.598;2022-07-29T03:58:29;5.22;;;3.05;;
52978;SDS011;51106;53.186;6.598;2022-07-29T04:00:32;6.43;;;2.60;;
52978;SDS011;51106;53.186;6.598;2022-07-29T04:02:36;8.30;;;2.60;;
52978;SDS011;51106;53.186;6.598;2022-07-29T04:04:41;6.25;;;2.70;;
52978;SDS011;51106;53.186;6.598;2022-07-29T04:06:44;6.68;;;2.60;;
52978;SDS011;51106;53.186;6.598;2022-07-29T04:08:48;5.03;;;2.50;;
52978;SDS011;51106;53.186;6.598;2022-07-29T04:10:50;5.75;;;2.50;;
52978;SDS011;51106;53.186;6.598;2022-07-29T04:12:53;5.05;;;2.58;;
52978;SDS011;51106;53.186;6.598;2022-07-29T04:14:55;4.07;;;2.72;;
52978;SDS011;51106;53.186;6.598;2022-07-29T04:16:57;4.70;;;2.75;;
52978;SDS011;51106;53.186;6.598;2022-07-29T04:19:00;3.25;;;2.20;;
52978;SDS011;51106;53.186;6.598;2022-07-29T04:21:02;4.10;;;2.30;;
52978;SDS011;51106;53.186;6.598;2022-07-29T04:23:05;4.20;;;3.00;;
52978;SDS011;51106;53.186;6.598;2022-07-29T04:25:07;6.63;;;3.00;;
52978;SDS011;51106;53.186;6.598;2022-07-29T04:27:10;4.05;;;2.63;;
52978;SDS011;51106;53.186;6.598;2022-07-29T04:29:12;4.80;;;2.85;;
52978;SDS011;51106;53.186;6.598;2022-07-29T04:31:18;3.78;;;2.60;;
52978;SDS011;51106;53.186;6.598;2022-07-29T04:33:26;4.15;;;2.47;;
52978;SDS011;51106;53.186;6.598;2022-07-29T04:35:29;4.72;;;2.40;;
52978;SDS011;51106;53.186;6.598;2022-07-29T04:37:39;6.40;;;2.60;;
52978;SDS011;51106;53.186;6.598;2022-07-29T04:39:42;7.50;;;2.90;;
52978;SDS011;51106;53.186;6.598;2022-07-29T04:41:44;3.53;;;2.30;;
52978;SDS011;51106;53.186;6.598;2022-07-29T04:43:46;5.22;;;2.40;;
52978;SDS011;51106;53.186;6.598;2022-07-29T04:45:48;4.93;;;2.47;;
52978;SDS011;51106;53.186;6.598;2022-07-29T04:47:51;7.22;;;2.85;;
52978;SDS011;51106;53.186;6.598;2022-07-29T04:49:53;7.32;;;2.67;;
52978;SDS011;51106;53.186;6.598;2022-07-29T04:51:55;3.45;;;2.40;;
52978;SDS011;51106;53.186;6.598;2022-07-29T04:53:59;4.30;;;2.35;;
52978;SDS011;51106;53.186;6.598;2022-07-29T04:56:02;2.90;;;2.10;;
52978;SDS011;51106;53.186;6.598;2022-07-29T04:58:04;4.13;;;2.28;;
52978;SDS011;51106;53.186;6.598;2022-07-29T05:00:06;4.55;;;2.47;;
52978;SDS011;51106;53.186;6.598;2022-07-29T05:02:12;5.57;;;2.38;;
52978;SDS011;51106;53.186;6.598;2022-07-29T05:04:14;5.75;;;2.55;;
52978;SDS011;51106;53.186;6.598;2022-07-29T05:06:17;8.27;;;3.00;;
52978;SDS011;51106;53.186;6.598;2022-07-29T05:08:19;9.25;;;2.63;;
52978;SDS011;51106;53.186;6.598;2022-07-29T05:10:21;3.33;;;2.40;;
52978;SDS011;51106;53.186;6.598;2022-07-29T05:12:24;4.57;;;2.25;;
52978;SDS011;51106;53.186;6.598;2022-07-29T05:14:26;3.90;;;2.50;;
52978;SDS011;51106;53.186;6.598;2022-07-29T05:16:28;4.07;;;2.30;;
52978;SDS011;51106;53.186;6.598;2022-07-29T05:18:30;3.67;;;2.17;;
52978;SDS011;51106;53.186;6.598;2022-07-29T05:20:35;4.45;;;2.50;;
52978;SDS011;51106;53.186;6.598;2022-07-29T05:22:38;5.95;;;2.22;;
52978;SDS011;51106;53.186;6.598;2022-07-29T05:24:40;5.20;;;2.30;;
52978;SDS011;51106;53.186;6.598;2022-07-29T05:26:42;5.55;;;2.70;;
52978;SDS011;51106;53.186;6.598;2022-07-29T05:28:44;3.10;;;2.40;;
52978;SDS011;51106;53.186;6.598;2022-07-29T05:30:46;4.95;;;2.40;;
52978;SDS011;51106;53.186;6.598;2022-07-29T05:32:52;4.72;;;2.50;;
52978;SDS011;51106;53.186;6.598;2022-07-29T05:34:54;5.30;;;2.80;;
52978;SDS011;51106;53.186;6.598;2022-07-29T05:36:57;4.88;;;2.88;;
52978;SDS011;51106;53.186;6.598;2022-07-29T05:39:00;4.75;;;2.42;;
52978;SDS011;51106;53.186;6.598;2022-07-29T05:41:02;4.30;;;2.65;;
52978;SDS011;51106;53.186;6.598;2022-07-29T05:43:05;4.95;;;2.22;;
52978;SDS011;51106;53.186;6.598;2022-07-29T05:45:07;6.85;;;2.33;;
52978;SDS011;51106;53.186;6.598;2022-07-29T05:47:10;5.68;;;2.17;;
52978;SDS011;51106;53.186;6.598;2022-07-29T05:49:13;4.43;;;2.38;;
52978;SDS011;51106;53.186;6.598;2022-07-29T05:51:28;4.90;;;2.60;;
52978;SDS011;51106;53.186;6.598;2022-07-29T05:53:31;7.15;;;2.78;;
52978;SDS011;51106;53.186;6.598;2022-07-29T05:55:33;2.92;;;2.50;;
52978;SDS011;51106;53.186;6.598;2022-07-29T05:57:39;3.20;;;2.30;;
52978;SDS011;51106;53.186;6.598;2022-07-29T05:59:41;4.55;;;2.53;;
52978;SDS011;51106;53.186;6.598;2022-07-29T06:01:43;4.63;;;2.20;;
52978;SDS011;51106;53.186;6.598;2022-07-29T06:03:45;6.10;;;2.42;;
52978;SDS011;51106;53.186;6.598;2022-07-29T06:05:47;5.03;;;2.30;;
52978;SDS011;51106;53.186;6.598;2022-07-29T06:07:49;4.07;;;2.30;;
52978;SDS011;51106;53.186;6.598;2022-07-29T06:09:52;5.55;;;2.60;;
52978;SDS011;51106;53.186;6.598;2022-07-29T06:11:54;3.58;;;2.20;;
52978;SDS011;51106;53.186;6.598;2022-07-29T06:13:56;4.43;;;2.63;;
52978;SDS011;51106;53.186;6.598;2022-07-29T06:15:58;6.93;;;2.53;;
52978;SDS011;51106;53.186;6.598;2022-07-29T06:18:00;5.35;;;2.40;;
52978;SDS011;51106;53.186;6.598;2022-07-29T06:20:03;4.80;;;2.45;;
52978;SDS011;51106;53.186;6.598;2022-07-29T06:22:07;4.50;;;2.28;;
52978;SDS011;51106;53.186;6.598;2022-07-29T06:24:10;5.65;;;2.47;;
52978;SDS011;51106;53.186;6.598;2022-07-29T06:26:14;5.88;;;2.65;;
52978;SDS011;51106;53.186;6.598;2022-07-29T06:28:16;4.22;;;2.70;;
52978;SDS011;51106;53.186;6.598;2022-07-29T06:30:18;5.10;;;2.70;;
52978;SDS011;51106;53.186;6.598;2022-07-29T06:32:20;7.15;;;2.80;;
52978;SDS011;51106;53.186;6.598;2022-07-29T06:34:27;5.10;;;2.70;;
52978;SDS011;51106;53.186;6.598;2022-07-29T06:36:33;8.05;;;2.58;;
52978;SDS011;51106;53.186;6.598;2022-07-29T06:38:38;4.78;;;2.50;;
52978;SDS011;51106;53.186;6.598;2022-07-29T06:40:46;4.53;;;2.63;;
52978;SDS011;51106;53.186;6.598;2022-07-29T06:43:06;5.05;;;2.50;;
52978;SDS011;51106;53.186;6.598;2022-07-29T06:45:08;7.03;;;2.78;;
52978;SDS011;51106;53.186;6.598;2022-07-29T06:47:11;4.25;;;2.40;;
52978;SDS011;51106;53.186;6.598;2022-07-29T06:49:13;6.35;;;2.50;;
52978;SDS011;51106;53.186;6.598;2022-07-29T06:51:16;9.85;;;2.70;;
52978;SDS011;51106;53.186;6.598;2022-07-29T06:53:23;5.93;;;2.40;;
52978;SDS011;51106;53.186;6.598;2022-07-29T06:55:26;6.72;;;2.80;;
52978;SDS011;51106;53.186;6.598;2022-07-29T06:57:28;4.15;;;2.28;;
52978;SDS011;51106;53.186;6.598;2022-07-29T06:59:30;4.90;;;2.88;;
52978;SDS011;51106;53.186;6.598;2022-07-29T07:01:36;5.65;;;2.53;;
52978;SDS011;51106;53.186;6.598;2022-07-29T07:03:40;4.60;;;2.75;;
52978;SDS011;51106;53.186;6.598;2022-07-29T07:05:45;5.30;;;2.63;;
52978;SDS011;51106;53.186;6.598;2022-07-29T07:07:48;4.60;;;2.60;;
52978;SDS011;51106;53.186;6.598;2022-07-29T07:09:53;3.35;;;2.45;;
52978;SDS011;51106;53.186;6.598;2022-07-29T07:11:55;5.75;;;2.42;;
52978;SDS011;51106;53.186;6.598;2022-07-29T07:13:58;7.53;;;2.53;;
52978;SDS011;51106;53.186;6.598;2022-07-29T07:16:04;3.78;;;2.30;;
52978;SDS011;51106;53.186;6.598;2022-07-29T07:18:06;3.95;;;2.20;;
52978;SDS011;51106;53.186;6.598;2022-07-29T07:20:09;3.95;;;2.50;;
52978;SDS011;51106;53.186;6.598;2022-07-29T07:22:11;3.30;;;2.47;;
52978;SDS011;51106;53.186;6.598;2022-07-29T07:24:13;5.22;;;2.22;;
52978;SDS011;51106;53.186;6.598;2022-07-29T07:26:15;5.68;;;2.38;;
52978;SDS011;51106;53.186;6.598;2022-07-29T07:28:18;6.28;;;2.45;;
52978;SDS011;51106;53.186;6.598;2022-07-29T07:30:25;3.70;;;2.35;;
52978;SDS011;51106;53.186;6.598;2022-07-29T07:32:28;5.35;;;2.75;;
52978;SDS011;51106;53.186;6.598;2022-07-29T07:34:30;6.25;;;2.63;;
52978;SDS011;51106;53.186;6.598;2022-07-29T07:36:32;5.07;;;2.60;;
52978;SDS011;51106;53.186;6.598;2022-07-29T07:38:34;6.47;;;2.88;;
52978;SDS011;51106;53.186;6.598;2022-07-29T07:40:48;6.13;;;2.67;;
52978;SDS011;51106;53.186;6.598;2022-07-29T07:42:50;4.90;;;2.47;;
52978;SDS011;51106;53.186;6.598;2022-07-29T07:44:52;5.32;;;2.38;;
52978;SDS011;51106;53.186;6.598;2022-07-29T07:47:14;5.80;;;2.55;;
52978;SDS011;51106;53.186;6.598;2022-07-29T07:49:22;5.13;;;2.72;;
52978;SDS011;51106;53.186;6.598;2022-07-29T07:51:25;6.68;;;2.83;;
52978;SDS011;51106;53.186;6.598;2022-07-29T07:53:27;5.28;;;2.65;;
52978;SDS011;51106;53.186;6.598;2022-07-29T07:55:31;5.30;;;2.47;;
52978;SDS011;51106;53.186;6.598;2022-07-29T07:57:53;4.00;;;2.47;;
52978;SDS011;51106;53.186;6.598;2022-07-29T07:59:59;5.07;;;2.70;;
52978;SDS011;51106;53.186;6.598;2022-07-29T08:02:01;3.75;;;2.50;;
52978;SDS011;51106;53.186;6.598;2022-07-29T08:04:03;4.80;;;2.50;;
52978;SDS011;51106;53.186;6.598;2022-07-29T08:06:05;5.50;;;2.40;;
52978;SDS011;51106;53.186;6.598;2022-07-29T08:08:07;5.55;;;2.83;;
52978;SDS011;51106;53.186;6.598;2022-07-29T08:10:09;7.25;;;2.40;;
52978;SDS011;51106;53.186;6.598;2022-07-29T08:12:12;6.07;;;2.33;;
52978;SDS011;51106;53.186;6.598;2022-07-29T08:14:14;7.57;;;3.10;;
52978;SDS011;51106;53.186;6.598;2022-07-29T08:16:16;4.10;;;2.60;;
52978;SDS011;51106;53.186;6.598;2022-07-29T08:18:18;5.55;;;2.45;;
52978;SDS011;51106;53.186;6.598;2022-07-29T08:20:20;7.07;;;2.70;;
52978;SDS011;51106;53.186;6.598;2022-07-29T08:22:22;3.60;;;2.63;;
52978;SDS011;51106;53.186;6.598;2022-07-29T08:24:24;5.47;;;2.90;;
52978;SDS011;51106;53.186;6.598;2022-07-29T08:26:44;4.85;;;2.60;;
52978;SDS011;51106;53.186;6.598;2022-07-29T08:28:47;4.63;;;2.75;;
52978;SDS011;51106;53.186;6.598;2022-07-29T08:30:51;5.13;;;2.75;;
52978;SDS011;51106;53.186;6.598;2022-07-29T08:32:53;4.43;;;2.50;;
52978;SDS011;51106;53.186;6.598;2022-07-29T08:34:58;6.70;;;2.67;;
52978;SDS011;51106;53.186;6.598;2022-07-29T08:37:01;4.82;;;2.50;;
52978;SDS011;51106;53.186;6.598;2022-07-29T08:39:04;6.63;;;2.80;;
52978;SDS011;51106;53.186;6.598;2022-07-29T08:41:07;6.60;;;2.97;;
52978;SDS011;51106;53.186;6.598;2022-07-29T08:43:09;4.82;;;2.55;;
52978;SDS011;51106;53.186;6.598;2022-07-29T08:45:11;4.38;;;2.58;;
52978;SDS011;51106;53.186;6.598;2022-07-29T08:47:16;5.93;;;2.80;;
52978;SDS011;51106;53.186;6.598;2022-07-29T08:49:18;6.25;;;2.55;;
52978;SDS011;51106;53.186;6.598;2022-07-29T08:51:21;6.68;;;2.40;;
52978;SDS011;51106;53.186;6.598;2022-07-29T08:53:24;4.95;;;2.60;;
52978;SDS011;51106;53.186;6.598;2022-07-29T08:55:28;3.80;;;2.83;;
52978;SDS011;51106;53.186;6.598;2022-07-29T08:57:31;4.75;;;2.58;;
52978;SDS011;51106;53.186;6.598;2022-07-29T08:59:37;4.75;;;2.60;;
52978;SDS011;51106;53.186;6.598;2022-07-29T09:01:43;7.53;;;2.92;;
52978;SDS011;51106;53.186;6.598;2022-07-29T09:03:47;4.70;;;2.63;;
52978;SDS011;51106;53.186;6.598;2022-07-29T09:05:50;6.38;;;2.38;;
52978;SDS011;51106;53.186;6.598;2022-07-29T09:07:53;4.22;;;2.60;;
52978;SDS011;51106;53.186;6.598;2022-07-29T09:09:56;6.03;;;3.15;;
52978;SDS011;51106;53.186;6.598;2022-07-29T09:11:58;7.97;;;2.90;;
52978;SDS011;51106;53.186;6.598;2022-07-29T09:14:02;7.50;;;2.90;;
52978;SDS011;51106;53.186;6.598;2022-07-29T09:16:04;6.85;;;2.80;;
52978;SDS011;51106;53.186;6.598;2022-07-29T09:18:10;3.80;;;2.70;;
52978;SDS011;51106;53.186;6.598;2022-07-29T09:20:30;6.95;;;2.80;;
52978;SDS011;51106;53.186;6.598;2022-07-29T09:22:52;4.95;;;2.75;;
52978;SDS011;51106;53.186;6.598;2022-07-29T09:24:54;7.03;;;3.03;;
52978;SDS011;51106;53.186;6.598;2022-07-29T09:26:56;4.53;;;2.75;;
52978;SDS011;51106;53.186;6.598;2022-07-29T09:29:07;4.15;;;2.95;;
52978;SDS011;51106;53.186;6.598;2022-07-29T09:31:19;4.38;;;2.92;;
52978;SDS011;51106;53.186;6.598;2022-07-29T09:33:36;7.13;;;2.85;;
52978;SDS011;51106;53.186;6.598;2022-07-29T09:35:41;7.25;;;3.00;;
52978;SDS011;51106;53.186;6.598;2022-07-29T09:37:57;5.45;;;2.90;;
52978;SDS011;51106;53.186;6.598;2022-07-29T09:40:11;7.28;;;2.67;;
52978;SDS011;51106;53.186;6.598;2022-07-29T09:42:16;7.00;;;2.83;;
52978;SDS011;51106;53.186;6.598;2022-07-29T09:44:42;5.63;;;3.10;;
52978;SDS011;51106;53.186;6.598;2022-07-29T09:49:10;6.53;;;2.80;;
52978;SDS011;51106;53.186;6.598;2022-07-29T09:51:17;5.00;;;3.25;;
52978;SDS011;51106;53.186;6.598;2022-07-29T09:55:40;6.43;;;2.85;;
52978;SDS011;51106;53.186;6.598;2022-07-29T09:57:52;5.80;;;2.80;;
52978;SDS011;51106;53.186;6.598;2022-07-29T09:59:59;7.20;;;3.17;;
52978;SDS011;51106;53.186;6.598;2022-07-29T10:02:10;4.50;;;2.92;;
52978;SDS011;51106;53.186;6.598;2022-07-29T10:04:22;7.05;;;2.88;;
52978;SDS011;51106;53.186;6.598;2022-07-29T10:06:56;5.45;;;2.95;;
52978;SDS011;51106;53.186;6.598;2022-07-29T10:09:10;4.78;;;2.88;;
52978;SDS011;51106;53.186;6.598;2022-07-29T10:11:16;5.78;;;2.92;;
52978;SDS011;51106;53.186;6.598;2022-07-29T10:13:19;6.60;;;3.08;;
52978;SDS011;51106;53.186;6.598;2022-07-29T10:15:22;5.95;;;3.00;;
52978;SDS011;51106;53.186;6.598;2022-07-29T10:17:25;5.05;;;3.00;;
52978;SDS011;51106;53.186;6.598;2022-07-29T10:19:30;7.15;;;3.22;;
52978;SDS011;51106;53.186;6.598;2022-07-29T10:21:33;7.47;;;3.00;;
52978;SDS011;51106;53.186;6.598;2022-07-29T10:23:37;5.78;;;3.25;;
52978;SDS011;51106;53.186;6.598;2022-07-29T10:25:47;4.97;;;2.90;;
52978;SDS011;51106;53.186;6.598;2022-07-29T10:27:50;5.85;;;3.08;;
52978;SDS011;51106;53.186;6.598;2022-07-29T10:29:53;7.90;;;2.90;;
52978;SDS011;51106;53.186;6.598;2022-07-29T10:36:56;9.60;;;3.38;;
52978;SDS011;51106;53.186;6.598;2022-07-29T10:39:40;7.82;;;3.38;;
52978;SDS011;51106;53.186;6.598;2022-07-29T10:42:32;5.60;;;2.80;;
52978;SDS011;51106;53.186;6.598;2022-07-29T10:44:42;6.30;;;3.28;;
52978;SDS011;51106;53.186;6.598;2022-07-29T10:46:46;6.35;;;3.13;;
52978;SDS011;51106;53.186;6.598;2022-07-29T10:49:04;7.13;;;3.60;;
52978;SDS011;51106;53.186;6.598;2022-07-29T10:51:18;4.32;;;2.95;;
52978;SDS011;51106;53.186;6.598;2022-07-29T10:53:24;6.10;;;3.08;;
52978;SDS011;51106;53.186;6.598;2022-07-29T10:55:48;9.05;;;3.58;;
52978;SDS011;51106;53.186;6.598;2022-07-29T10:58:15;9.02;;;3.55;;
52978;SDS011;51106;53.186;6.598;2022-07-29T11:09:17;5.90;;;3.40;;
52978;SDS011;51106;53.186;6.598;2022-07-29T11:11:37;5.70;;;3.25;;
52978;SDS011;51106;53.186;6.598;2022-07-29T11:14:02;4.68;;;3.40;;
52978;SDS011;51106;53.186;6.598;2022-07-29T11:16:05;7.82;;;3.38;;
52978;SDS011;51106;53.186;6.598;2022-07-29T11:18:08;5.32;;;3.05;;
52978;SDS011;51106;53.186;6.598;2022-07-29T11:20:30;5.13;;;3.25;;
52978;SDS011;51106;53.186;6.598;2022-07-29T11:22:43;8.07;;;3.60;;
52978;SDS011;51106;53.186;6.598;2022-07-29T11:24:47;6.90;;;3.00;;
52978;SDS011;51106;53.186;6.598;2022-07-29T11:27:20;9.02;;;3.65;;
52978;SDS011;51106;53.186;6.598;2022-07-29T11:29:29;5.55;;;3.25;;
52978;SDS011;51106;53.186;6.598;2022-07-29T11:31:41;6.40;;;3.40;;
52978;SDS011;51106;53.186;6.598;2022-07-29T11:33:45;7.15;;;3.15;;
52978;SDS011;51106;53.186;6.598;2022-07-29T11:36:14;6.60;;;3.35;;
52978;SDS011;51106;53.186;6.598;2022-07-29T11:40:29;5.20;;;3.58;;
52978;SDS011;51106;53.186;6.598;2022-07-29T11:44:53;10.05;;;4.00;;
52978;SDS011;51106;53.186;6.598;2022-07-29T11:47:35;8.95;;;3.30;;
52978;SDS011;51106;53.186;6.598;2022-07-29T11:49:40;8.23;;;4.05;;
52978;SDS011;51106;53.186;6.598;2022-07-29T11:53:54;9.82;;;3.55;;
52978;SDS011;51106;53.186;6.598;2022-07-29T11:56:07;7.07;;;3.40;;
52978;SDS011;51106;53.186;6.598;2022-07-29T11:58:10;7.47;;;3.83;;
52978;SDS011;51106;53.186;6.598;2022-07-29T12:02:44;6.68;;;3.85;;
52978;SDS011;51106;53.186;6.598;2022-07-29T12:04:50;5.85;;;3.50;;
52978;SDS011;51106;53.186;6.598;2022-07-29T12:06:56;6.38;;;3.35;;
52978;SDS011;51106;53.186;6.598;2022-07-29T12:09:06;7.00;;;3.30;;
52978;SDS011;51106;53.186;6.598;2022-07-29T12:11:15;8.73;;;3.22;;
52978;SDS011;51106;53.186;6.598;2022-07-29T12:13:21;6.40;;;3.15;;
52978;SDS011;51106;53.186;6.598;2022-07-29T12:15:38;4.80;;;3.20;;
52978;SDS011;51106;53.186;6.598;2022-07-29T12:17:47;5.63;;;3.00;;
52978;SDS011;51106;53.186;6.598;2022-07-29T12:19:49;5.25;;;3.00;;
52978;SDS011;51106;53.186;6.598;2022-07-29T12:21:54;7.57;;;3.30;;
52978;SDS011;51106;53.186;6.598;2022-07-29T12:23:59;4.53;;;3.20;;
52978;SDS011;51106;53.186;6.598;2022-07-29T12:26:09;7.35;;;3.33;;
52978;SDS011;51106;53.186;6.598;2022-07-29T12:28:30;6.25;;;3.05;;
52978;SDS011;51106;53.186;6.598;2022-07-29T12:30:41;5.85;;;3.00;;
52978;SDS011;51106;53.186;6.598;2022-07-29T12:32:52;5.50;;;2.72;;
52978;SDS011;51106;53.186;6.598;2022-07-29T12:34:54;4.90;;;2.45;;
52978;SDS011;51106;53.186;6.598;2022-07-29T12:36:56;9.02;;;3.33;;
52978;SDS011;51106;53.186;6.598;2022-07-29T12:38:58;6.63;;;2.85;;
52978;SDS011;51106;53.186;6.598;2022-07-29T12:41:00;5.93;;;2.90;;
52978;SDS011;51106;53.186;6.598;2022-07-29T12:43:09;6.72;;;2.72;;
52978;SDS011;51106;53.186;6.598;2022-07-29T12:45:13;5.07;;;3.15;;
52978;SDS011;51106;53.186;6.598;2022-07-29T12:47:18;7.95;;;3.00;;
52978;SDS011;51106;53.186;6.598;2022-07-29T12:49:21;4.10;;;3.03;;
52978;SDS011;51106;53.186;6.598;2022-07-29T12:51:31;8.88;;;2.92;;
52978;SDS011;51106;53.186;6.598;2022-07-29T12:53:38;6.03;;;3.63;;
52978;SDS011;51106;53.186;6.598;2022-07-29T12:55:42;8.38;;;2.85;;
52978;SDS011;51106;53.186;6.598;2022-07-29T12:57:46;6.22;;;2.97;;
52978;SDS011;51106;53.186;6.598;2022-07-29T13:02:21;5.03;;;2.70;;
52978;SDS011;51106;53.186;6.598;2022-07-29T13:04:25;5.90;;;2.90;;
52978;SDS011;51106;53.186;6.598;2022-07-29T13:08:38;7.00;;;3.00;;
52978;SDS011;51106;53.186;6.598;2022-07-29T13:10:58;7.28;;;3.10;;
52978;SDS011;51106;53.186;6.598;2022-07-29T13:13:01;6.78;;;3.35;;
52978;SDS011;51106;53.186;6.598;2022-07-29T13:15:14;7.33;;;3.10;;
52978;SDS011;51106;53.186;6.598;2022-07-29T13:17:18;7.07;;;3.03;;
52978;SDS011;51106;53.186;6.598;2022-07-29T13:19:31;7.03;;;3.40;;
52978;SDS011;51106;53.186;6.598;2022-07-29T13:21:41;7.03;;;3.50;;
52978;SDS011;51106;53.186;6.598;2022-07-29T13:23:43;4.47;;;2.83;;